Time;durP1;ratioP1;P1;durP2;ratioP2;P2;SDS_P1;SDS_P2;PMS_P1;PMS_P2;Temp;Humidity;BMP_temperature;BMP_pressure;BME280_temperature;BME280_humidity;BME280_pressure;Samples;Min_cycle;Max_cycle;Signal;HPM_P1;HPM_P2
2022/06/25 00:01:10;;;;;;;3.35;1.80;;;19.70;92.70;;;;;;5016669;28;20029;-85
2022/06/25 00:03:36;;;;;;;2.60;1.90;;;19.60;92.80;;;;;;5017591;28;20362;-84
2022/06/25 00:06:02;;;;;;;3.80;2.13;;;19.60;92.90;;;;;;5000129;28;20108;-84
2022/06/25 00:08:29;;;;;;;3.67;2.17;;;19.60;93.00;;;;;;5017563;28;20022;-84
2022/06/25 00:10:54;;;;;;;3.58;1.90;;;19.60;93.10;;;;;;5015927;28;20021;-84
2022/06/25 00:13:21;;;;;;;4.55;2.17;;;19.50;93.50;;;;;;5016048;28;20022;-85
2022/06/25 00:15:47;;;;;;;2.92;1.85;;;19.50;93.30;;;;;;5016516;28;20458;-84
2022/06/25 00:18:14;;;;;;;5.78;2.53;;;19.50;93.50;;;;;;5015800;28;20038;-84
2022/06/25 00:20:40;;;;;;;4.88;2.22;;;19.50;93.50;;;;;;5017089;28;20026;-85
2022/06/25 00:23:06;;;;;;;4.22;2.30;;;19.40;93.60;;;;;;5016153;28;20018;-85
2022/06/25 00:25:32;;;;;;;3.40;1.92;;;19.40;93.70;;;;;;5016236;28;20030;-85
2022/06/25 00:27:57;;;;;;;3.78;2.20;;;19.40;94.10;;;;;;4999784;28;20026;-86
2022/06/25 00:30:23;;;;;;;5.80;1.80;;;19.40;93.90;;;;;;5010105;28;20061;-85
2022/06/25 00:32:49;;;;;;;3.88;2.08;;;19.30;93.90;;;;;;4997255;28;20027;-86
2022/06/25 00:35:15;;;;;;;4.55;1.85;;;19.30;94.00;;;;;;4995878;28;20042;-85
2022/06/25 00:37:41;;;;;;;5.03;2.13;;;19.30;94.10;;;;;;5012329;28;20034;-85
2022/06/25 00:40:08;;;;;;;4.78;2.20;;;19.30;94.30;;;;;;4996393;28;20102;-85
2022/06/25 00:42:33;;;;;;;3.35;2.30;;;19.30;94.70;;;;;;4988090;28;20041;-84
2022/06/25 00:44:59;;;;;;;3.47;1.85;;;19.20;94.50;;;;;;4982350;28;20034;-85
2022/06/25 00:47:26;;;;;;;4.15;2.30;;;19.20;94.50;;;;;;5004939;28;20019;-85
2022/06/25 00:49:52;;;;;;;4.22;1.65;;;19.20;94.60;;;;;;4979748;28;20344;-85
2022/06/25 00:52:20;;;;;;;4.03;1.73;;;19.20;94.70;;;;;;4997432;28;20014;-85
2022/06/25 00:54:51;;;;;;;6.47;1.88;;;19.20;94.80;;;;;;4996328;28;20125;-86
2022/06/25 00:57:28;;;;;;;4.55;2.10;;;19.10;95.10;;;;;;4998315;28;20085;-85
2022/06/25 01:00:03;;;;;;;5.63;1.90;;;19.10;94.90;;;;;;4996016;28;20018;-86
2022/06/25 01:02:28;;;;;;;3.10;1.77;;;19.10;95.00;;;;;;4995120;28;20362;-86
2022/06/25 01:04:54;;;;;;;3.22;1.83;;;19.10;95.10;;;;;;4996062;28;20018;-85
2022/06/25 01:07:20;;;;;;;3.45;1.52;;;19.00;95.10;;;;;;4979792;28;20029;-85
2022/06/25 01:09:47;;;;;;;4.43;2.03;;;19.10;95.20;;;;;;4995703;28;20573;-84
2022/06/25 01:12:13;;;;;;;5.93;1.63;;;19.00;95.20;;;;;;4995976;28;20072;-84
2022/06/25 01:14:39;;;;;;;2.42;1.52;;;19.00;95.30;;;;;;4996952;28;20026;-84
2022/06/25 01:17:09;;;;;;;4.40;2.00;;;19.00;95.40;;;;;;4979092;28;20057;-84
2022/06/25 01:19:36;;;;;;;4.30;1.65;;;19.00;95.50;;;;;;4995165;28;20025;-83
2022/06/25 01:22:05;;;;;;;3.92;2.03;;;18.90;95.40;;;;;;4996769;28;20030;-84
2022/06/25 01:24:32;;;;;;;6.35;2.13;;;18.90;95.60;;;;;;4995095;28;20054;-84
2022/06/25 01:26:57;;;;;;;3.10;1.73;;;18.90;95.70;;;;;;4979074;28;20415;-84
2022/06/25 01:29:24;;;;;;;4.35;2.20;;;18.90;95.70;;;;;;4995078;28;20106;-84
2022/06/25 01:31:51;;;;;;;3.67;2.00;;;18.90;95.90;;;;;;4995166;28;20022;-84
2022/06/25 01:34:17;;;;;;;5.72;2.10;;;18.80;95.90;;;;;;4995013;28;20030;-84
2022/06/25 01:36:43;;;;;;;3.85;2.00;;;18.80;95.90;;;;;;4995771;28;20068;-84
2022/06/25 01:39:09;;;;;;;3.00;1.70;;;18.80;96.00;;;;;;4996161;28;20157;-84
2022/06/25 01:41:34;;;;;;;3.13;1.63;;;18.80;96.00;;;;;;4995872;28;20023;-84
2022/06/25 01:44:00;;;;;;;4.47;1.95;;;18.80;96.10;;;;;;4978311;28;20089;-83
2022/06/25 01:46:26;;;;;;;4.00;1.88;;;18.80;96.10;;;;;;4995911;28;20027;-84
2022/06/25 01:48:52;;;;;;;5.43;2.55;;;18.80;96.20;;;;;;4994589;28;20062;-83
2022/06/25 01:51:18;;;;;;;2.42;1.65;;;18.70;96.20;;;;;;4995704;28;20018;-83
2022/06/25 01:53:45;;;;;;;5.85;2.17;;;18.70;96.30;;;;;;4978438;28;20031;-82
2022/06/25 01:56:11;;;;;;;3.92;1.92;;;18.70;96.40;;;;;;4994216;28;20093;-83
2022/06/25 01:58:36;;;;;;;3.33;1.50;;;18.70;96.40;;;;;;4994419;28;20428;-83
2022/06/25 02:01:04;;;;;;;3.42;2.00;;;18.70;96.50;;;;;;4978423;28;20034;-82
2022/06/25 02:03:30;;;;;;;4.70;1.65;;;18.60;96.50;;;;;;4994439;28;20113;-83
2022/06/25 02:05:59;;;;;;;4.03;2.45;;;18.60;96.60;;;;;;4994152;28;20109;-83
2022/06/25 02:08:34;;;;;;;6.10;2.20;;;18.60;96.60;;;;;;4994532;28;20034;-84
2022/06/25 02:11:01;;;;;;;4.35;2.05;;;18.60;96.70;;;;;;4995538;28;20026;-85
2022/06/25 02:13:27;;;;;;;3.80;2.13;;;18.60;96.80;;;;;;4994294;28;20117;-84
2022/06/25 02:15:54;;;;;;;4.00;2.10;;;18.50;96.80;;;;;;4994083;28;20113;-83
2022/06/25 02:18:20;;;;;;;3.63;1.98;;;18.50;96.90;;;;;;4995060;28;20038;-85
2022/06/25 02:20:46;;;;;;;4.15;2.28;;;18.50;96.90;;;;;;4993971;28;20362;-83
2022/06/25 02:23:13;;;;;;;3.38;1.92;;;18.50;97.00;;;;;;4994031;28;20476;-83
2022/06/25 02:25:39;;;;;;;5.68;1.90;;;18.50;97.00;;;;;;4995761;28;20053;-84
2022/06/25 02:28:05;;;;;;;5.28;2.35;;;18.40;97.10;;;;;;4994174;28;20027;-84
2022/06/25 02:30:31;;;;;;;4.57;2.22;;;18.50;97.10;;;;;;4995200;28;20025;-84
2022/06/25 02:32:57;;;;;;;4.03;1.83;;;18.40;97.10;;;;;;4977794;28;20026;-83
2022/06/25 02:35:22;;;;;;;3.45;1.50;;;18.40;97.20;;;;;;4999486;28;20034;-84
2022/06/25 02:37:48;;;;;;;5.88;1.92;;;18.40;97.20;;;;;;5011190;28;20042;-84
2022/06/25 02:40:13;;;;;;;4.25;2.17;;;18.40;97.30;;;;;;4975874;28;20463;-84
2022/06/25 02:42:40;;;;;;;4.30;1.73;;;18.30;97.30;;;;;;5007258;28;20021;-85
2022/06/25 02:45:07;;;;;;;3.50;1.65;;;18.30;97.30;;;;;;4994468;28;20035;-85
2022/06/25 02:47:33;;;;;;;4.20;2.00;;;18.30;97.40;;;;;;4993004;28;20352;-84
2022/06/25 02:49:59;;;;;;;5.28;1.60;;;18.30;97.40;;;;;;4977166;28;20026;-84
2022/06/25 02:52:25;;;;;;;3.22;1.90;;;18.20;97.30;;;;;;4993455;28;20026;-85
2022/06/25 02:54:51;;;;;;;4.97;1.70;;;18.20;97.40;;;;;;4994376;28;20019;-84
2022/06/25 03:00:01;;;;;;;3.58;1.70;;;18.20;97.40;;;;;;4992743;28;20037;-85
2022/06/25 03:02:27;;;;;;;4.32;2.10;;;18.20;97.40;;;;;;4993583;28;20113;-86
2022/06/25 03:04:53;;;;;;;7.45;1.63;;;18.10;97.50;;;;;;4993514;28;20026;-86
2022/06/25 03:07:19;;;;;;;4.68;2.30;;;18.20;97.50;;;;;;4977128;28;20399;-86
2022/06/25 03:09:45;;;;;;;6.22;2.03;;;18.10;97.50;;;;;;4977487;28;20022;-85
2022/06/25 03:12:12;;;;;;;5.10;1.92;;;18.10;97.50;;;;;;4993180;28;20026;-85
2022/06/25 03:14:38;;;;;;;2.83;1.42;;;18.10;97.50;;;;;;4977180;28;20018;-85
2022/06/25 03:17:04;;;;;;;3.55;1.60;;;18.10;97.60;;;;;;4994375;28;20046;-85
2022/06/25 03:19:29;;;;;;;4.75;2.03;;;18.10;97.60;;;;;;4993032;28;20018;-84
2022/06/25 03:21:55;;;;;;;4.90;1.88;;;18.10;97.60;;;;;;4992721;28;20052;-85
2022/06/25 03:24:21;;;;;;;3.08;1.73;;;18.00;97.60;;;;;;4992864;28;20014;-85
2022/06/25 03:26:46;;;;;;;4.38;1.90;;;18.00;97.60;;;;;;4960287;28;20081;-86
2022/06/25 03:29:12;;;;;;;4.20;1.90;;;18.00;97.70;;;;;;4992767;28;20026;-86
2022/06/25 03:31:38;;;;;;;3.05;1.65;;;17.90;97.70;;;;;;4994503;28;20080;-85
2022/06/25 03:34:03;;;;;;;3.35;1.65;;;17.90;97.70;;;;;;4976765;28;20374;-86
2022/06/25 03:36:29;;;;;;;5.40;2.00;;;17.90;97.70;;;;;;4976706;28;20481;-85
2022/06/25 03:38:55;;;;;;;6.72;1.98;;;17.90;97.70;;;;;;4977247;28;20027;-84
2022/06/25 03:41:32;;;;;;;5.47;1.92;;;17.90;97.80;;;;;;4976900;28;20484;-87
2022/06/25 03:44:04;;;;;;;5.43;1.88;;;17.90;97.80;;;;;;4994126;28;20443;-85
2022/06/25 03:46:30;;;;;;;4.68;1.73;;;17.90;97.80;;;;;;4992863;28;20081;-85
2022/06/25 03:48:56;;;;;;;6.80;2.13;;;17.90;97.80;;;;;;4993905;28;20023;-85
2022/06/25 03:51:22;;;;;;;3.92;1.83;;;17.80;97.80;;;;;;4994092;28;20470;-85
2022/06/25 03:53:48;;;;;;;3.42;1.90;;;17.80;97.90;;;;;;4992630;28;20475;-86
2022/06/25 03:56:13;;;;;;;3.15;1.67;;;17.80;97.90;;;;;;4976534;28;20421;-86
2022/06/25 03:58:39;;;;;;;4.78;2.22;;;17.80;97.90;;;;;;4976831;28;20023;-86
2022/06/25 04:01:05;;;;;;;3.10;1.80;;;17.80;97.90;;;;;;4976692;28;20030;-86
2022/06/25 04:03:30;;;;;;;6.05;1.52;;;17.80;98.00;;;;;;4976414;28;20068;-86
2022/06/25 04:05:57;;;;;;;3.92;1.80;;;17.80;98.00;;;;;;4993313;28;20105;-85
2022/06/25 04:08:23;;;;;;;4.30;1.75;;;17.80;98.00;;;;;;4993887;28;20034;-85
2022/06/25 04:10:48;;;;;;;3.55;1.90;;;17.80;98.00;;;;;;4993921;28;20026;-86
2022/06/25 04:13:14;;;;;;;3.47;1.67;;;17.90;98.10;;;;;;4976328;28;20046;-85
2022/06/25 04:15:41;;;;;;;5.15;1.77;;;17.90;98.10;;;;;;4992441;28;20080;-84
2022/06/25 04:18:07;;;;;;;3.72;1.92;;;17.90;98.10;;;;;;4992058;28;20569;-85
2022/06/25 04:20:33;;;;;;;6.43;2.08;;;17.90;98.10;;;;;;4993721;28;20093;-85
2022/06/25 04:22:58;;;;;;;4.45;2.08;;;17.90;98.10;;;;;;4976468;28;20019;-86
2022/06/25 04:25:24;;;;;;;3.75;2.20;;;17.90;98.10;;;;;;4992932;28;20034;-85
2022/06/25 04:30:34;;;;;;;7.15;1.90;;;17.90;98.10;;;;;;5013566;28;20524;-84
2022/06/25 04:33:00;;;;;;;3.90;1.80;;;18.00;98.10;;;;;;5012645;28;20026;-83
2022/06/25 04:35:26;;;;;;;5.20;2.20;;;18.00;98.10;;;;;;5011680;28;20033;-84
2022/06/25 04:37:52;;;;;;;4.57;2.17;;;18.00;98.10;;;;;;5013779;28;20045;-84
2022/06/25 04:40:18;;;;;;;7.20;2.40;;;18.10;98.20;;;;;;5014639;28;20030;-84
2022/06/25 04:42:45;;;;;;;5.90;2.65;;;18.10;98.10;;;;;;5015731;28;20030;-84
2022/06/25 04:45:11;;;;;;;5.90;2.58;;;18.20;98.10;;;;;;5016786;28;20064;-84
2022/06/25 04:47:36;;;;;;;4.88;2.60;;;18.20;98.10;;;;;;5016035;28;20022;-84
2022/06/25 04:50:02;;;;;;;6.78;2.47;;;18.20;98.10;;;;;;5015738;28;20014;-83
2022/06/25 04:52:28;;;;;;;3.25;2.05;;;18.30;98.10;;;;;;5015705;28;20026;-84
2022/06/25 04:54:54;;;;;;;5.45;2.42;;;18.30;98.10;;;;;;5015545;28;20033;-84
2022/06/25 04:57:19;;;;;;;6.18;2.92;;;18.40;98.10;;;;;;5016077;28;20034;-85
2022/06/25 04:59:45;;;;;;;4.15;2.30;;;18.40;98.00;;;;;;4999696;28;20392;-84
2022/06/25 05:02:11;;;;;;;3.90;2.13;;;18.50;98.00;;;;;;4999135;28;20374;-83
2022/06/25 05:04:36;;;;;;;5.60;2.33;;;18.50;98.00;;;;;;4998961;28;20063;-85
2022/06/25 05:07:02;;;;;;;3.65;2.60;;;18.60;98.00;;;;;;5015357;28;20026;-83
2022/06/25 05:09:27;;;;;;;6.18;2.95;;;18.60;97.80;;;;;;4999052;28;20022;-84
2022/06/25 05:11:54;;;;;;;5.35;2.22;;;18.70;97.80;;;;;;4998996;28;20375;-84
2022/06/25 05:14:20;;;;;;;4.35;2.35;;;18.70;97.70;;;;;;5015298;28;20072;-85
2022/06/25 05:16:46;;;;;;;3.63;2.30;;;18.70;97.70;;;;;;5015185;28;20057;-85
2022/06/25 05:19:12;;;;;;;5.75;2.83;;;18.80;97.60;;;;;;5015381;28;20037;-81
2022/06/25 05:21:38;;;;;;;5.85;2.90;;;18.80;97.50;;;;;;5014753;28;20025;-81
2022/06/25 05:24:04;;;;;;;5.25;3.10;;;18.80;97.50;;;;;;5014525;28;20056;-81
2022/06/25 05:26:30;;;;;;;5.07;3.10;;;18.80;97.40;;;;;;5014251;28;20026;-81
2022/06/25 05:28:55;;;;;;;5.40;2.63;;;18.90;97.30;;;;;;5014663;28;20029;-81
2022/06/25 05:31:21;;;;;;;6.57;3.28;;;18.90;97.30;;;;;;4998503;28;20026;-81
2022/06/25 05:33:47;;;;;;;5.07;3.03;;;18.90;97.30;;;;;;5015809;28;20458;-81
2022/06/25 05:36:12;;;;;;;5.68;3.30;;;18.90;97.20;;;;;;5014746;28;20466;-81
2022/06/25 05:38:38;;;;;;;9.93;3.17;;;18.90;97.20;;;;;;4998002;28;20355;-81
2022/06/25 05:41:08;;;;;;;6.18;2.35;;;18.90;97.20;;;;;;5014058;28;20022;-81
2022/06/25 05:43:40;;;;;;;3.97;2.30;;;19.00;97.30;;;;;;4998436;28;20030;-81
2022/06/25 05:46:07;;;;;;;4.65;2.60;;;18.90;97.10;;;;;;5014463;28;20470;-81
2022/06/25 05:48:33;;;;;;;6.63;2.75;;;18.90;97.10;;;;;;5015106;28;20084;-81
2022/06/25 05:51:00;;;;;;;8.70;3.03;;;19.00;97.00;;;;;;5012351;28;20343;-81
2022/06/25 05:53:26;;;;;;;7.85;3.55;;;18.90;97.00;;;;;;4997580;28;20026;-81
2022/06/25 05:55:52;;;;;;;5.05;2.75;;;18.90;97.00;;;;;;5012822;28;20022;-81
2022/06/25 05:58:18;;;;;;;6.40;3.10;;;18.90;97.00;;;;;;5011413;28;20386;-80
2022/06/25 06:00:44;;;;;;;7.07;2.80;;;18.90;97.00;;;;;;5015320;28;20026;-82
2022/06/25 06:03:10;;;;;;;6.60;2.60;;;18.90;96.90;;;;;;5012813;28;20036;-81
2022/06/25 06:05:37;;;;;;;4.85;1.98;;;19.00;96.90;;;;;;5010424;28;20018;-80
2022/06/25 06:08:02;;;;;;;4.82;2.80;;;19.00;96.90;;;;;;5011825;28;20239;-81
2022/06/25 06:10:28;;;;;;;8.30;2.63;;;19.00;96.80;;;;;;5011344;28;20026;-81
2022/06/25 06:12:54;;;;;;;6.78;2.70;;;19.00;96.70;;;;;;5001945;28;20048;-81
2022/06/25 06:15:19;;;;;;;4.57;2.60;;;19.00;96.70;;;;;;5010997;28;20030;-81
2022/06/25 06:17:45;;;;;;;4.38;2.60;;;19.10;96.60;;;;;;5013310;28;20112;-81
2022/06/25 06:20:11;;;;;;;5.47;2.53;;;19.10;96.50;;;;;;5008530;28;20045;-82
2022/06/25 06:22:37;;;;;;;8.85;2.83;;;19.10;96.50;;;;;;5009764;28;20022;-81
2022/06/25 06:25:03;;;;;;;4.97;2.60;;;19.10;96.50;;;;;;5010828;28;20052;-83
2022/06/25 06:27:29;;;;;;;5.47;2.55;;;19.20;96.50;;;;;;4996554;28;20026;-82
2022/06/25 06:29:57;;;;;;;5.43;2.25;;;19.20;96.40;;;;;;5012616;28;20025;-82
2022/06/25 06:32:23;;;;;;;7.18;2.88;;;19.20;96.50;;;;;;5012541;28;20048;-83
2022/06/25 06:34:48;;;;;;;5.82;2.88;;;19.30;96.40;;;;;;4997222;28;20538;-82
2022/06/25 06:37:14;;;;;;;9.93;3.38;;;19.30;96.30;;;;;;4995831;28;20441;-82
2022/06/25 06:39:40;;;;;;;6.45;2.35;;;19.30;96.30;;;;;;5013209;28;20552;-83
2022/06/25 06:42:06;;;;;;;4.47;2.30;;;19.30;96.20;;;;;;5012763;28;20520;-82
2022/06/25 06:44:31;;;;;;;5.30;2.08;;;19.40;96.20;;;;;;5013196;28;20352;-83
2022/06/25 06:46:57;;;;;;;3.75;2.15;;;19.40;96.10;;;;;;5013190;28;20121;-83
2022/06/25 06:49:23;;;;;;;6.35;2.33;;;19.50;95.90;;;;;;4996566;28;20018;-83
2022/06/25 06:51:48;;;;;;;4.07;2.00;;;19.50;95.90;;;;;;5014001;28;20367;-82
2022/06/25 06:54:14;;;;;;;3.22;1.73;;;19.60;95.80;;;;;;5014372;28;20044;-83
2022/06/25 06:56:40;;;;;;;5.78;1.60;;;19.60;95.80;;;;;;4996729;28;20525;-83
2022/06/25 06:59:05;;;;;;;5.45;2.20;;;19.70;95.70;;;;;;5012587;28;20013;-82
2022/06/25 07:01:31;;;;;;;5.82;1.77;;;19.70;95.60;;;;;;4987991;28;20042;-82
2022/06/25 07:03:57;;;;;;;5.95;2.03;;;19.70;95.40;;;;;;5009610;28;20031;-80
2022/06/25 07:06:22;;;;;;;5.10;1.65;;;19.70;95.30;;;;;;4992954;28;20022;-82
2022/06/25 07:08:48;;;;;;;4.50;1.42;;;19.70;95.30;;;;;;4993324;28;20041;-82
2022/06/25 07:11:29;;;;;;;2.97;1.55;;;19.70;95.20;;;;;;5009402;28;20022;-82
2022/06/25 07:13:56;;;;;;;4.43;1.70;;;19.70;95.00;;;;;;4992969;28;20034;-81
2022/06/25 07:16:22;;;;;;;3.92;1.30;;;19.80;95.10;;;;;;5020917;28;20025;-81
2022/06/25 07:18:48;;;;;;;5.68;1.88;;;19.80;95.10;;;;;;5012567;28;20056;-81
2022/06/25 07:21:14;;;;;;;7.65;1.65;;;19.90;95.10;;;;;;5005524;28;20029;-80
2022/06/25 07:23:39;;;;;;;5.53;1.52;;;19.90;95.00;;;;;;4995350;28;20029;-82
2022/06/25 07:26:05;;;;;;;3.90;1.52;;;20.00;94.70;;;;;;5012498;28;20092;-81
2022/06/25 07:28:31;;;;;;;4.85;1.20;;;20.00;94.60;;;;;;5012572;28;20025;-81
2022/06/25 07:30:56;;;;;;;3.75;1.25;;;20.10;94.60;;;;;;5012342;28;20022;-80
2022/06/25 07:33:25;;;;;;;8.02;1.70;;;20.20;94.60;;;;;;5005812;28;20360;-81
2022/06/25 07:35:51;;;;;;;4.38;1.33;;;20.30;94.60;;;;;;4992048;28;20022;-81
2022/06/25 07:38:17;;;;;;;2.35;1.10;;;20.40;94.60;;;;;;4991707;28;20502;-81
2022/06/25 07:40:42;;;;;;;3.28;1.40;;;20.50;94.50;;;;;;4994333;28;20035;-80
2022/06/25 07:43:08;;;;;;;2.55;0.90;;;20.60;94.40;;;;;;4977366;28;20026;-80
2022/06/25 07:45:34;;;;;;;4.53;1.10;;;20.70;94.20;;;;;;5012412;28;20080;-80
2022/06/25 07:47:59;;;;;;;2.30;0.95;;;20.90;94.10;;;;;;5012405;28;20458;-81
2022/06/25 07:53:09;;;;;;;;;;;20.90;93.40;;;;;;5012784;28;20092;-81
2022/06/25 07:55:35;;;;;;;2.67;0.98;;;20.90;93.20;;;;;;5012498;28;19909;-79
2022/06/25 07:58:00;;;;;;;2.25;0.77;;;20.90;93.30;;;;;;5006683;28;20450;-80
2022/06/25 08:00:26;;;;;;;3.65;1.10;;;21.00;93.10;;;;;;5011433;28;20034;-80
2022/06/25 08:02:52;;;;;;;2.28;0.77;;;21.10;92.90;;;;;;4998892;28;20050;-79
2022/06/25 08:05:18;;;;;;;3.15;1.20;;;21.20;92.90;;;;;;4999883;28;20022;-79
2022/06/25 08:07:54;;;;;;;1.88;0.70;;;21.30;92.80;;;;;;5005584;28;20073;-79
2022/06/25 08:10:46;;;;;;;2.80;0.80;;;21.40;92.60;;;;;;5005160;28;20018;-80
2022/06/25 08:13:12;;;;;;;3.35;0.65;;;21.50;92.30;;;;;;5010472;28;20026;-80
2022/06/25 08:15:43;;;;;;;2.38;0.75;;;21.60;92.10;;;;;;4998747;28;20026;-80
2022/06/25 08:18:09;;;;;;;2.28;0.52;;;21.60;91.90;;;;;;4999548;28;20050;-80
2022/06/25 08:20:44;;;;;;;1.52;0.50;;;21.60;91.20;;;;;;5016979;28;20026;-80
2022/06/25 08:23:12;;;;;;;2.72;0.57;;;21.70;91.20;;;;;;4999498;28;20028;-80
2022/06/25 08:25:38;;;;;;;2.17;0.60;;;21.70;90.90;;;;;;5015655;28;20014;-80
2022/06/25 08:28:10;;;;;;;3.13;0.50;;;21.80;90.90;;;;;;5015041;28;20069;-80
2022/06/25 08:34:01;;;;;;;2.38;0.60;;;22.00;90.30;;;;;;5005349;28;20034;-80
2022/06/25 08:36:37;;;;;;;2.40;0.43;;;22.20;90.00;;;;;;4995518;28;20022;-80
2022/06/25 08:39:08;;;;;;;2.10;0.57;;;22.30;90.00;;;;;;4987257;28;20034;-80
2022/06/25 08:41:34;;;;;;;1.92;0.70;;;22.40;89.30;;;;;;4996842;28;20125;-80
2022/06/25 08:43:59;;;;;;;4.03;0.60;;;22.60;88.70;;;;;;5015224;28;20030;-81
2022/06/25 08:46:38;;;;;;;3.80;0.70;;;22.70;88.00;;;;;;4998963;28;20126;-81
2022/06/25 08:49:04;;;;;;;2.80;0.50;;;22.80;87.30;;;;;;5005813;28;20026;-82
2022/06/25 08:51:32;;;;;;;3.22;0.65;;;22.70;85.80;;;;;;5006473;28;20072;-84
2022/06/25 08:53:59;;;;;;;1.92;0.40;;;22.70;85.90;;;;;;5008587;28;20041;-82
2022/06/25 08:56:26;;;;;;;1.60;0.40;;;22.80;86.00;;;;;;5007253;28;20045;-84
2022/06/25 08:58:52;;;;;;;4.22;0.40;;;22.80;84.90;;;;;;4998243;28;20038;-85
2022/06/25 09:01:17;;;;;;;0.98;0.30;;;22.80;83.70;;;;;;4995067;28;20057;-83
2022/06/25 09:03:43;;;;;;;1.85;0.60;;;22.80;83.80;;;;;;4997237;28;20476;-84
2022/06/25 09:06:14;;;;;;;1.05;0.43;;;22.70;83.40;;;;;;4995658;28;20034;-85
2022/06/25 09:08:41;;;;;;;1.15;0.35;;;22.70;83.40;;;;;;4979041;28;20479;-83
2022/06/25 09:11:07;;;;;;;2.35;0.40;;;22.70;83.60;;;;;;4995532;28;20024;-84
2022/06/25 09:13:42;;;;;;;4.43;0.40;;;22.70;83.50;;;;;;4994546;28;20493;-84
2022/06/25 09:16:22;;;;;;;1.42;0.40;;;22.80;82.90;;;;;;4993570;28;20046;-83
2022/06/25 09:18:48;;;;;;;1.40;0.30;;;22.80;82.50;;;;;;5009649;28;20050;-84
2022/06/25 09:21:14;;;;;;;3.15;0.50;;;22.70;82.30;;;;;;4998421;28;20029;-84
2022/06/25 09:24:03;;;;;;;4.15;0.52;;;22.60;81.50;;;;;;5014233;28;20101;-83
2022/06/25 09:26:29;;;;;;;2.92;0.60;;;22.60;81.30;;;;;;5015361;28;20021;-84
2022/06/25 09:29:01;;;;;;;2.13;0.50;;;22.50;81.50;;;;;;5009671;28;20469;-82
2022/06/25 09:31:34;;;;;;;2.38;0.43;;;22.50;81.90;;;;;;5014463;28;20029;-83
2022/06/25 09:34:04;;;;;;;3.90;0.60;;;22.40;82.20;;;;;;5015869;28;20048;-84
2022/06/25 09:36:30;;;;;;;2.78;0.60;;;22.50;82.60;;;;;;5016860;28;20037;-83
2022/06/25 09:38:56;;;;;;;2.03;0.80;;;22.40;82.90;;;;;;5014844;28;20029;-83
2022/06/25 09:41:25;;;;;;;1.92;0.50;;;22.40;83.00;;;;;;5014116;28;20022;-83
2022/06/25 09:43:51;;;;;;;1.67;0.50;;;22.40;83.10;;;;;;5007344;28;20029;-82
2022/06/25 09:46:18;;;;;;;3.00;0.60;;;22.40;83.10;;;;;;5016509;28;20089;-83
2022/06/25 09:48:44;;;;;;;2.20;0.57;;;22.40;83.10;;;;;;4998329;28;20080;-83
2022/06/25 09:51:26;;;;;;;2.35;0.60;;;22.40;83.20;;;;;;5013898;28;20018;-83
2022/06/25 09:53:51;;;;;;;3.05;0.50;;;22.40;83.30;;;;;;5014146;28;20454;-82
2022/06/25 09:56:20;;;;;;;2.15;0.55;;;22.40;83.50;;;;;;5013886;28;20044;-82
2022/06/25 09:58:47;;;;;;;2.70;0.50;;;22.40;83.70;;;;;;5013907;28;20068;-83
2022/06/25 10:01:18;;;;;;;1.65;0.40;;;22.40;83.80;;;;;;4997759;28;20057;-83
2022/06/25 10:03:45;;;;;;;3.47;0.60;;;22.50;84.10;;;;;;5015386;28;20213;-83
2022/06/25 10:06:19;;;;;;;2.67;0.57;;;22.50;84.00;;;;;;5014196;28;20036;-83
2022/06/25 10:08:49;;;;;;;2.20;0.60;;;22.60;84.00;;;;;;5013404;28;20024;-83
2022/06/25 10:11:19;;;;;;;1.13;0.50;;;22.70;83.90;;;;;;5013594;28;20053;-83
2022/06/25 10:13:47;;;;;;;2.67;0.77;;;22.80;83.60;;;;;;5013084;28;20101;-83
2022/06/25 10:16:16;;;;;;;1.80;0.70;;;22.80;83.00;;;;;;5013207;28;20029;-84
2022/06/25 10:18:43;;;;;;;3.58;1.00;;;22.80;82.80;;;;;;5015234;28;20100;-84
2022/06/25 10:21:09;;;;;;;4.55;1.10;;;22.80;82.70;;;;;;5014817;28;20030;-83
2022/06/25 10:23:39;;;;;;;4.05;0.90;;;22.80;82.60;;;;;;5013024;28;20072;-84
2022/06/25 10:26:05;;;;;;;2.20;0.57;;;22.80;82.80;;;;;;5013554;28;20116;-84
2022/06/25 10:28:35;;;;;;;2.45;0.65;;;22.80;82.70;;;;;;5014305;28;20118;-84
2022/06/25 10:31:05;;;;;;;1.73;0.60;;;22.80;82.40;;;;;;5012611;28;20458;-83
2022/06/25 10:33:36;;;;;;;2.33;0.60;;;22.80;82.20;;;;;;5007282;28;20415;-83
2022/06/25 10:36:04;;;;;;;1.42;0.60;;;22.80;82.20;;;;;;5009232;28;20088;-84
2022/06/25 10:38:30;;;;;;;3.58;0.80;;;22.80;82.30;;;;;;5013194;28;20033;-83
2022/06/25 10:42:58;;;;;;;1.70;0.63;;;22.70;82.30;;;;;;5014561;28;20048;-84
2022/06/25 10:43:50;;;;;;;2.65;0.70;;;22.70;82.10;;;;;;5012585;28;20064;-81
2022/06/25 10:46:37;;;;;;;1.38;0.60;;;22.70;82.10;;;;;;5002026;28;20042;-82
2022/06/25 10:49:10;;;;;;;3.55;0.80;;;22.60;82.40;;;;;;5010638;28;20461;-82
2022/06/25 10:51:38;;;;;;;2.93;0.67;;;22.60;82.60;;;;;;5009936;28;20094;-82
2022/06/25 10:54:25;;;;;;;1.98;0.70;;;22.50;82.50;;;;;;4998077;28;20130;-83
2022/06/25 10:56:56;;;;;;;2.20;0.70;;;22.50;82.90;;;;;;4990465;28;20487;-83
2022/06/25 10:59:34;;;;;;;1.88;0.70;;;22.50;83.50;;;;;;4993006;28;20025;-82
2022/06/25 11:02:06;;;;;;;3.25;0.82;;;22.50;83.90;;;;;;4994351;28;20479;-82
2022/06/25 11:04:32;;;;;;;4.38;0.98;;;22.60;84.20;;;;;;4993528;28;20030;-82
2022/06/25 11:07:11;;;;;;;2.00;1.00;;;22.60;84.30;;;;;;4994502;28;20505;-82
2022/06/25 11:09:38;;;;;;;4.32;0.60;;;22.70;84.60;;;;;;4997188;28;20359;-82
2022/06/25 11:12:06;;;;;;;3.58;0.85;;;22.80;84.40;;;;;;5006514;28;20065;-82
2022/06/25 11:14:32;;;;;;;3.50;0.98;;;22.80;84.30;;;;;;4995893;28;20545;-82
2022/06/25 11:17:09;;;;;;;5.22;1.10;;;22.90;84.20;;;;;;5012130;28;20064;-82
2022/06/25 11:19:35;;;;;;;1.92;0.77;;;23.00;83.40;;;;;;5013382;28;20442;-82
2022/06/25 11:22:02;;;;;;;1.60;0.75;;;23.00;83.00;;;;;;5013576;28;20025;-82
2022/06/25 11:24:29;;;;;;;3.55;0.93;;;23.10;83.00;;;;;;4996529;28;20029;-82
2022/06/25 11:29:49;;;;;;;2.08;0.80;;;23.40;82.40;;;;;;5012427;28;20135;-82
2022/06/25 11:32:26;;;;;;;3.63;0.95;;;23.60;82.20;;;;;;5012169;28;20014;-83
2022/06/25 11:35:00;;;;;;;2.35;0.70;;;23.80;82.70;;;;;;5012137;28;20568;-82
2022/06/25 11:37:26;;;;;;;1.90;0.70;;;24.10;81.90;;;;;;5013160;28;20069;-83
2022/06/25 11:39:52;;;;;;;2.65;0.60;;;24.50;81.70;;;;;;5012153;28;20030;-83
2022/06/25 11:42:19;;;;;;;3.85;0.77;;;24.80;80.60;;;;;;5013159;28;20033;-82
2022/06/25 11:44:55;;;;;;;1.77;0.73;;;25.10;79.80;;;;;;5030357;28;20018;-82
2022/06/25 11:47:23;;;;;;;2.78;0.63;;;25.50;78.50;;;;;;5022733;28;20030;-82
2022/06/25 11:49:50;;;;;;;1.35;0.57;;;26.10;78.80;;;;;;5010898;28;20033;-81
2022/06/25 11:52:17;;;;;;;1.70;0.52;;;26.70;77.60;;;;;;5002356;28;20033;-82
2022/06/25 11:54:45;;;;;;;2.55;0.70;;;26.90;75.00;;;;;;5015654;28;20608;-81
2022/06/25 11:57:17;;;;;;;3.47;0.60;;;27.10;72.50;;;;;;5015234;28;20034;-82
2022/06/25 11:59:43;;;;;;;2.67;0.50;;;27.40;71.50;;;;;;5012986;28;20105;-82
2022/06/25 12:02:09;;;;;;;3.35;0.47;;;27.60;70.80;;;;;;5006508;28;20113;-82
2022/06/25 12:04:57;;;;;;;5.72;0.40;;;27.80;69.60;;;;;;5014772;28;20057;-83
2022/06/25 12:07:33;;;;;;;3.03;0.70;;;27.80;67.40;;;;;;5014379;28;20034;-82
2022/06/25 12:10:09;;;;;;;1.30;0.40;;;27.60;66.90;;;;;;5008089;28;20030;-82
2022/06/25 12:12:36;;;;;;;2.35;0.52;;;27.50;66.90;;;;;;5013589;28;20084;-82
2022/06/25 12:15:03;;;;;;;3.72;0.75;;;27.40;66.00;;;;;;5011445;28;20022;-82
2022/06/25 12:17:36;;;;;;;2.00;0.52;;;27.20;66.00;;;;;;5013005;28;20046;-82
2022/06/25 12:20:07;;;;;;;4.35;0.50;;;27.10;65.90;;;;;;5011819;28;20888;-82
2022/06/25 12:22:36;;;;;;;2.03;0.60;;;26.90;66.30;;;;;;5011918;28;20071;-82
2022/06/25 12:25:02;;;;;;;1.55;0.47;;;27.00;66.50;;;;;;5012495;28;20462;-82
2022/06/25 12:27:28;;;;;;;1.98;0.60;;;27.00;66.60;;;;;;5013106;28;20022;-81
2022/06/25 12:29:59;;;;;;;2.10;0.50;;;27.00;66.60;;;;;;5013074;28;20033;-83
2022/06/25 12:32:39;;;;;;;2.75;0.50;;;27.00;66.50;;;;;;5011955;28;20022;-82
2022/06/25 12:35:20;;;;;;;11.20;1.08;;;27.00;66.70;;;;;;4995634;28;20121;-82
2022/06/25 12:38:00;;;;;;;4.88;1.10;;;27.00;67.30;;;;;;5011744;28;20030;-82
2022/06/25 12:40:26;;;;;;;1.65;0.70;;;27.00;67.10;;;;;;5012244;28;20053;-82
2022/06/25 12:42:58;;;;;;;2.47;0.70;;;27.10;66.90;;;;;;5007111;28;20651;-83
2022/06/25 12:45:24;;;;;;;3.30;0.60;;;27.30;66.60;;;;;;5005017;28;20017;-81
2022/06/25 12:47:50;;;;;;;2.17;0.50;;;27.30;66.30;;;;;;4993902;28;20030;-81
2022/06/25 12:50:30;;;;;;;2.35;0.60;;;27.40;66.40;;;;;;5011629;28;20150;-83
2022/06/25 12:53:08;;;;;;;1.65;0.50;;;27.60;66.20;;;;;;4978186;28;20062;-82
2022/06/25 12:55:35;;;;;;;3.53;0.32;;;27.80;66.30;;;;;;5011671;28;20112;-83
2022/06/25 12:58:08;;;;;;;0.90;0.30;;;28.10;66.00;;;;;;5012933;28;20034;-84
2022/06/25 13:00:37;;;;;;;1.08;0.30;;;28.40;64.90;;;;;;5015754;28;20038;-84
2022/06/25 13:03:05;;;;;;;0.88;0.22;;;28.50;64.10;;;;;;5018564;28;20091;-84
2022/06/25 13:05:30;;;;;;;3.85;0.40;;;28.60;63.50;;;;;;5015687;28;20022;-83